createdAt,value
2024-03-07T00:02:20.108Z,83.96
2024-03-07T00:04:50.636Z,84.23
2024-03-07T00:07:22.122Z,84.16
2024-03-07T00:09:54.951Z,84.51
2024-03-07T00:12:25.482Z,84.68
2024-03-07T00:14:56.290Z,85.32
2024-03-07T00:17:27.014Z,85.40
2024-03-07T00:19:57.466Z,85.56
2024-03-07T00:22:30.910Z,85.95
2024-03-07T00:25:01.622Z,85.81
2024-03-07T00:27:32.207Z,85.97
2024-03-07T00:30:03.699Z,85.70
2024-03-07T00:32:37.137Z,85.36
2024-03-07T00:35:10.337Z,85.42
2024-03-07T00:37:40.977Z,85.17
2024-03-07T00:40:13.321Z,85.61
2024-03-07T00:42:44.224Z,85.46
2024-03-07T00:45:14.924Z,85.73
2024-03-07T00:47:45.583Z,85.47
2024-03-07T00:50:16.488Z,85.41
2024-03-07T00:52:47.084Z,85.53
2024-03-07T00:55:17.779Z,85.87
2024-03-07T00:57:48.235Z,85.80
2024-03-07T01:00:22.689Z,85.80
2024-03-07T01:02:54.535Z,85.80
2024-03-07T01:05:25.287Z,85.85
2024-03-07T01:07:56.955Z,86.20
2024-03-07T01:10:27.606Z,86.53
2024-03-07T01:13:02.250Z,87.10
2024-03-07T01:15:33.986Z,87.27
2024-03-07T01:18:05.060Z,87.39
2024-03-07T01:20:36.763Z,87.47
2024-03-07T01:23:08.885Z,87.32
2024-03-07T01:25:40.161Z,87.43
2024-03-07T01:28:13.488Z,87.30
2024-03-07T01:30:43.805Z,87.70
2024-03-07T01:33:14.369Z,87.53
2024-03-07T01:35:45.265Z,87.21
2024-03-07T01:38:15.938Z,87.36
2024-03-07T01:40:47.401Z,87.42
2024-03-07T01:43:18.046Z,87.31
2024-03-07T01:45:49.541Z,87.49
2024-03-07T01:48:27.745Z,87.45
2024-03-07T01:50:59.112Z,87.31
2024-03-07T01:53:31.127Z,87.13
2024-03-07T01:56:03.726Z,87.07
2024-03-07T01:58:35.315Z,87.39
2024-03-07T02:01:06.071Z,87.41
2024-03-07T02:03:37.882Z,87.79
2024-03-07T02:06:08.846Z,88.01
2024-03-07T02:08:39.263Z,88.28
2024-03-07T02:11:10.771Z,88.16
2024-03-07T02:13:41.365Z,88.16
2024-03-07T02:16:11.768Z,88.20
2024-03-07T02:18:42.510Z,88.33
2024-03-07T02:21:12.939Z,88.40
2024-03-07T02:23:43.383Z,88.65
2024-03-07T02:26:14.240Z,88.41
2024-03-07T02:28:45.136Z,88.79
2024-03-07T02:31:15.509Z,88.54
2024-03-07T02:33:46.028Z,88.91
2024-03-07T02:36:16.748Z,88.85
2024-03-07T02:38:47.257Z,88.90
2024-03-07T02:41:17.786Z,88.72
2024-03-07T02:43:48.507Z,88.87
2024-03-07T02:46:19.020Z,88.93
2024-03-07T02:48:49.685Z,88.74
2024-03-07T02:51:20.170Z,88.72
2024-03-07T02:53:51.039Z,88.89
2024-03-07T02:56:21.561Z,88.68
2024-03-07T02:58:52.459Z,88.58
2024-03-07T03:01:23.149Z,88.72
2024-03-07T03:03:53.849Z,88.69
2024-03-07T03:06:24.271Z,88.72
2024-03-07T03:08:55.377Z,88.87
2024-03-07T03:11:26.951Z,88.91
2024-03-07T03:13:57.577Z,89.24
2024-03-07T03:16:43.041Z,89.09
2024-03-07T03:19:18.248Z,89.22
2024-03-07T03:21:48.665Z,89.09
2024-03-07T03:24:19.133Z,89.29
2024-03-07T03:26:49.637Z,89.34
2024-03-07T03:29:20.431Z,89.44
2024-03-07T03:31:50.916Z,89.63
2024-03-07T03:34:22.183Z,89.28
2024-03-07T03:36:52.599Z,89.28
2024-03-07T03:39:23.063Z,89.01
2024-03-07T03:41:53.563Z,89.30
2024-03-07T03:44:24.038Z,89.21
2024-03-07T03:46:54.516Z,89.38
2024-03-07T03:49:25.028Z,89.17
2024-03-07T03:51:55.923Z,89.44
2024-03-07T03:54:26.359Z,89.27
2024-03-07T03:56:56.802Z,88.89
2024-03-07T03:59:27.220Z,88.78
2024-03-07T04:01:57.605Z,88.86
2024-03-07T04:04:28.422Z,88.83
2024-03-07T04:06:58.748Z,88.65
2024-03-07T04:09:29.688Z,88.72
2024-03-07T04:12:00.666Z,88.95
2024-03-07T04:14:34.556Z,89.00
2024-03-07T04:17:04.982Z,88.88
2024-03-07T04:19:35.355Z,89.03
2024-03-07T04:22:06.289Z,89.27
2024-03-07T04:24:36.907Z,89.38
2024-03-07T04:27:08.375Z,89.26
2024-03-07T04:29:38.844Z,89.46
2024-03-07T04:32:10.364Z,89.28
2024-03-07T04:34:40.726Z,89.23
2024-03-07T04:37:11.162Z,89.23
2024-03-07T04:39:41.663Z,88.90
2024-03-07T04:42:12.221Z,88.85
2024-03-07T04:44:42.664Z,89.06
2024-03-07T04:47:13.272Z,89.10
2024-03-07T04:49:44.791Z,88.99
2024-03-07T04:52:15.710Z,89.22
2024-03-07T04:54:46.107Z,89.07
2024-03-07T04:57:16.540Z,89.19
2024-03-07T04:59:46.942Z,89.18
2024-03-07T05:02:17.408Z,89.18
2024-03-07T05:04:50.800Z,89.09
2024-03-07T05:07:21.299Z,89.42
2024-03-07T05:09:51.635Z,89.49
2024-03-07T05:12:21.987Z,89.58
2024-03-07T05:14:52.415Z,89.81
2024-03-07T05:17:23.276Z,89.74
2024-03-07T05:19:53.697Z,90.11
2024-03-07T05:22:26.864Z,90.15
2024-03-07T05:24:58.100Z,90.17
2024-03-07T05:27:31.234Z,90.29
2024-03-07T05:30:01.680Z,90.42
2024-03-07T05:32:32.589Z,90.38
2024-03-07T05:35:03.394Z,90.38
2024-03-07T05:37:34.068Z,90.38
2024-03-07T05:40:05.365Z,90.84
2024-03-07T05:42:35.914Z,91.01
2024-03-07T05:45:09.084Z,91.21
2024-03-07T05:47:39.722Z,91.63
2024-03-07T05:50:11.911Z,91.62
2024-03-07T05:52:42.377Z,91.61
2024-03-07T05:55:13.382Z,91.92
2024-03-07T05:57:45.677Z,92.10
2024-03-07T06:00:28.779Z,91.92
2024-03-07T06:02:59.955Z,92.15
2024-03-07T06:05:30.473Z,92.25
2024-03-07T06:08:01.023Z,92.34
2024-03-07T06:10:31.453Z,92.45
2024-03-07T06:13:10.363Z,92.43
2024-03-07T06:15:44.813Z,92.60
2024-03-07T06:18:15.862Z,92.70
2024-03-07T06:20:47.176Z,92.73
2024-03-07T06:23:18.351Z,92.70
2024-03-07T06:25:51.660Z,92.56
2024-03-07T06:28:22.115Z,92.72
2024-03-07T06:30:52.693Z,92.71
2024-03-07T06:33:25.944Z,92.60
2024-03-07T06:35:58.089Z,92.85
2024-03-07T06:38:28.904Z,92.87
2024-03-07T06:40:59.578Z,92.91
2024-03-07T06:43:30.584Z,92.93
2024-03-07T06:46:01.026Z,92.61
2024-03-07T06:48:31.480Z,92.55
2024-03-07T06:51:02.230Z,92.69
2024-03-07T06:53:32.892Z,92.66
2024-03-07T06:56:03.384Z,92.62
2024-03-07T06:58:34.196Z,92.49
2024-03-07T07:01:08.396Z,92.36
2024-03-07T07:03:39.159Z,92.21
2024-03-07T07:06:09.641Z,92.17
2024-03-07T07:08:40.583Z,92.01
2024-03-07T07:11:13.484Z,91.85
2024-03-07T07:13:44.229Z,91.88
2024-03-07T07:16:14.562Z,91.81
2024-03-07T07:18:44.982Z,91.65
2024-03-07T07:21:16.980Z,91.68
2024-03-07T07:23:47.541Z,91.30
2024-03-07T07:26:17.984Z,91.22
2024-03-07T07:28:48.396Z,91.26
2024-03-07T07:31:18.693Z,91.12
2024-03-07T07:33:49.029Z,91.09
2024-03-07T07:36:20.018Z,91.22
2024-03-07T07:38:50.423Z,90.95
2024-03-07T07:41:20.840Z,90.76
2024-03-07T07:43:51.795Z,90.81
2024-03-07T07:46:22.187Z,90.78
2024-03-07T07:48:52.545Z,90.82
2024-03-07T07:51:22.988Z,90.93
2024-03-07T07:53:55.407Z,90.82
2024-03-07T07:56:29.718Z,90.69
2024-03-07T07:59:00.254Z,90.23
2024-03-07T08:01:30.688Z,90.06
2024-03-07T08:04:01.113Z,89.98
2024-03-07T08:06:32.287Z,90.22
2024-03-07T08:09:02.896Z,90.16
2024-03-07T08:11:33.775Z,90.35
2024-03-07T08:14:04.381Z,90.48
2024-03-07T08:16:34.855Z,90.21
2024-03-07T08:19:05.473Z,89.81
2024-03-07T08:21:35.872Z,89.48
2024-03-07T08:24:11.954Z,89.40
2024-03-07T08:26:45.564Z,89.31
2024-03-07T08:29:15.993Z,89.50
2024-03-07T08:31:46.344Z,89.16
2024-03-07T08:34:16.712Z,88.97
2024-03-07T08:36:48.348Z,88.69
2024-03-07T08:39:20.547Z,88.30
2024-03-07T08:41:50.986Z,88.04
2024-03-07T08:44:21.618Z,88.07
2024-03-07T08:46:52.186Z,88.26
2024-03-07T08:49:23.657Z,87.85
2024-03-07T08:51:54.083Z,87.47
2024-03-07T08:54:24.843Z,87.64
2024-03-07T08:56:55.572Z,87.39
2024-03-07T08:59:26.151Z,87.49
2024-03-07T09:01:56.659Z,87.22
2024-03-07T09:04:27.185Z,87.10
2024-03-07T09:06:57.875Z,87.44
2024-03-07T09:09:28.285Z,87.40
2024-03-07T09:11:58.834Z,87.19
2024-03-07T09:14:29.372Z,86.59
2024-03-07T09:17:00.087Z,86.42
2024-03-07T09:19:30.592Z,86.61
2024-03-07T09:22:01.429Z,87.13
2024-03-07T09:24:32.427Z,87.62
2024-03-07T09:27:03.627Z,88.05
2024-03-07T09:29:34.595Z,88.49
2024-03-07T09:32:09.212Z,88.41
2024-03-07T09:34:40.198Z,88.01
2024-03-07T09:37:11.506Z,87.99
2024-03-07T09:39:41.974Z,88.31
2024-03-07T09:42:14.279Z,87.84
2024-03-07T09:44:47.918Z,87.40
2024-03-07T09:47:19.743Z,87.27
2024-03-07T09:49:50.454Z,86.72
2024-03-07T09:52:22.142Z,86.97
2024-03-07T09:54:52.476Z,86.87
2024-03-07T09:57:24.884Z,86.68
2024-03-07T09:59:57.331Z,86.46
2024-03-07T10:02:28.901Z,86.67
2024-03-07T10:05:00.887Z,86.60
2024-03-07T10:07:32.632Z,85.35
2024-03-07T10:10:11.041Z,84.62
2024-03-07T10:12:42.066Z,84.56
2024-03-07T10:15:14.980Z,84.18
2024-03-07T10:17:47.799Z,83.75
2024-03-07T10:20:24.126Z,82.46
2024-03-07T10:22:55.520Z,80.87
2024-03-07T10:25:28.498Z,80.28
2024-03-07T10:28:00.375Z,79.77
2024-03-07T10:30:30.948Z,79.76
2024-03-07T10:33:03.080Z,78.87
2024-03-07T10:35:33.956Z,77.44
2024-03-07T10:38:08.475Z,77.24
2024-03-07T10:40:42.453Z,77.26
2024-03-07T10:43:16.113Z,76.79
2024-03-07T10:45:49.067Z,76.63
2024-03-07T10:48:25.344Z,76.05
2024-03-07T10:51:07.269Z,75.83
2024-03-07T10:53:43.925Z,75.14
2024-03-07T10:56:26.681Z,74.02
2024-03-07T10:59:10.445Z,72.32
2024-03-07T11:01:51.409Z,70.67
2024-03-07T11:04:23.193Z,70.81
2024-03-07T11:06:55.080Z,69.96
2024-03-07T11:09:30.057Z,69.49
2024-03-07T11:12:04.686Z,67.21
2024-03-07T11:14:38.284Z,66.86
2024-03-07T11:17:10.691Z,66.48
2024-03-07T11:19:41.183Z,66.23
2024-03-07T11:22:16.960Z,65.36
2024-03-07T11:25:02.096Z,64.40
2024-03-07T11:27:34.153Z,63.67
2024-03-07T11:30:12.849Z,63.48
2024-03-07T11:32:45.883Z,62.81
2024-03-07T11:35:16.869Z,61.63
2024-03-07T11:37:50.345Z,61.59
2024-03-07T11:40:47.968Z,62.94
2024-03-07T11:43:16.945Z,64.17
2024-03-07T11:45:53.386Z,65.00
2024-03-07T11:48:25.168Z,65.25
2024-03-07T11:50:57.525Z,65.47
2024-03-07T11:53:28.912Z,65.25
2024-03-07T11:55:59.396Z,65.27
2024-03-07T11:58:33.159Z,65.06
2024-03-07T12:01:06.799Z,65.16
2024-03-07T12:03:37.251Z,65.17
2024-03-07T12:06:11.029Z,64.19
2024-03-07T12:08:43.279Z,62.88
2024-03-07T12:11:17.006Z,62.27
2024-03-07T12:13:48.729Z,61.89
2024-03-07T12:16:19.303Z,63.38
2024-03-07T12:18:50.293Z,61.75
2024-03-07T12:21:22.172Z,62.53
2024-03-07T12:23:52.953Z,62.78
2024-03-07T12:26:26.722Z,62.24
2024-03-07T12:28:58.526Z,62.40
2024-03-07T12:31:28.944Z,62.28
2024-03-07T12:33:59.714Z,62.89
2024-03-07T12:36:35.756Z,62.19
2024-03-07T12:39:20.408Z,61.97
2024-03-07T12:41:53.962Z,62.99
2024-03-07T12:44:24.828Z,63.06
2024-03-07T12:46:57.076Z,62.79
2024-03-07T12:49:28.434Z,63.17
2024-03-07T12:52:00.386Z,62.53
2024-03-07T12:54:31.110Z,59.73
2024-03-07T12:57:01.750Z,58.90
2024-03-07T12:59:32.393Z,58.33
2024-03-07T13:02:03.947Z,58.19
2024-03-07T13:04:34.594Z,57.95
2024-03-07T13:07:05.469Z,57.78
2024-03-07T13:09:36.367Z,58.04
2024-03-07T13:12:10.723Z,58.55
2024-03-07T13:14:41.522Z,58.74
2024-03-07T13:17:15.349Z,58.53
2024-03-07T13:19:50.980Z,58.35
2024-03-07T13:22:21.392Z,57.81
2024-03-07T13:24:51.849Z,57.95
2024-03-07T13:27:29.215Z,58.70
2024-03-07T13:29:59.822Z,59.20
2024-03-07T13:32:30.610Z,59.04
2024-03-07T13:35:02.629Z,59.69
2024-03-07T13:37:35.606Z,57.57
2024-03-07T13:40:24.176Z,58.25
2024-03-07T13:42:57.103Z,58.17
2024-03-07T13:45:29.623Z,58.33
2024-03-07T13:48:01.145Z,57.85
2024-03-07T13:50:47.280Z,58.18
2024-03-07T13:53:34.413Z,57.67
2024-03-07T13:56:31.458Z,57.34
2024-03-07T13:59:32.915Z,56.16
2024-03-07T14:02:24.765Z,55.31
2024-03-07T14:05:26.299Z,56.34
2024-03-07T14:08:24.898Z,57.98
2024-03-07T14:11:43.169Z,58.84
2024-03-07T14:14:38.345Z,59.85
2024-03-07T14:17:59.544Z,58.81
2024-03-07T14:21:18.254Z,58.54
2024-03-07T14:24:18.488Z,58.50
2024-03-07T14:27:20.485Z,57.97
2024-03-07T14:30:00.961Z,57.08
2024-03-07T14:32:32.305Z,56.18
2024-03-07T14:35:12.150Z,56.08
2024-03-07T14:37:52.009Z,55.40
2024-03-07T14:40:25.926Z,54.26
2024-03-07T14:43:00.605Z,54.05
2024-03-07T14:45:36.023Z,53.91
2024-03-07T14:48:10.957Z,52.74
2024-03-07T14:50:44.116Z,52.96
2024-03-07T14:53:18.025Z,52.93
2024-03-07T14:55:49.032Z,52.67
2024-03-07T14:58:21.162Z,52.84
2024-03-07T15:00:57.916Z,53.33
2024-03-07T15:03:30.924Z,53.62
2024-03-07T15:06:03.969Z,54.32
2024-03-07T15:08:34.844Z,55.26
2024-03-07T15:11:14.922Z,53.91
2024-03-07T15:13:46.992Z,52.33
2024-03-07T15:16:29.209Z,52.00
2024-03-07T15:19:04.026Z,51.79
2024-03-07T15:21:34.510Z,51.36
2024-03-07T15:24:06.158Z,51.08
2024-03-07T15:26:36.920Z,51.16
2024-03-07T15:29:08.207Z,50.81
2024-03-07T15:31:38.567Z,51.51
2024-03-07T15:34:10.689Z,52.38
2024-03-07T15:36:42.298Z,51.93
2024-03-07T15:39:21.452Z,51.70
2024-03-07T15:41:52.209Z,51.65
2024-03-07T15:44:22.659Z,52.19
2024-03-07T15:46:53.047Z,52.71
2024-03-07T15:49:23.392Z,52.99
2024-03-07T15:51:53.905Z,53.28
2024-03-07T15:54:25.031Z,53.72
2024-03-07T15:56:55.438Z,54.09
2024-03-07T15:59:25.822Z,54.14
2024-03-07T16:01:56.143Z,54.05
2024-03-07T16:04:26.473Z,54.11
2024-03-07T16:06:56.991Z,54.02
2024-03-07T16:09:27.540Z,53.88
2024-03-07T16:11:58.775Z,53.81
2024-03-07T16:14:29.363Z,54.03
2024-03-07T16:16:59.759Z,54.11
2024-03-07T16:19:30.192Z,54.12
2024-03-07T16:22:03.442Z,54.28
2024-03-07T16:24:37.593Z,54.52
2024-03-07T16:27:08.608Z,54.66
2024-03-07T16:29:39.536Z,54.75
2024-03-07T16:32:12.956Z,55.28
2024-03-07T16:34:44.092Z,55.11
2024-03-07T16:37:15.062Z,55.42
2024-03-07T16:39:45.902Z,55.88
2024-03-07T16:42:16.767Z,56.09
2024-03-07T16:44:47.099Z,55.95
2024-03-07T16:47:17.698Z,56.06
2024-03-07T16:49:50.398Z,56.42
2024-03-07T16:52:20.879Z,56.57
2024-03-07T16:54:51.745Z,56.68
2024-03-07T16:57:22.144Z,56.93
2024-03-07T16:59:52.597Z,57.09
2024-03-07T17:02:27.296Z,57.28
2024-03-07T17:04:59.230Z,57.47
2024-03-07T17:07:31.618Z,57.62
2024-03-07T17:10:02.432Z,57.74
2024-03-07T17:12:32.847Z,58.03
2024-03-07T17:15:03.340Z,58.20
2024-03-07T17:17:40.312Z,58.32
2024-03-07T17:20:12.475Z,58.49
2024-03-07T17:22:43.140Z,58.62
2024-03-07T17:25:17.437Z,58.72
2024-03-07T17:27:50.772Z,58.91
2024-03-07T17:30:22.906Z,59.18
2024-03-07T17:32:53.410Z,59.25
2024-03-07T17:35:23.939Z,59.72
2024-03-07T17:37:54.780Z,59.80
2024-03-07T17:40:27.836Z,59.88
2024-03-07T17:43:00.351Z,59.98
2024-03-07T17:45:36.424Z,60.18
2024-03-07T17:48:11.642Z,60.35
2024-03-07T17:50:43.535Z,60.35
2024-03-07T17:53:15.096Z,60.36
2024-03-07T17:55:46.371Z,60.60
2024-03-07T17:58:21.110Z,60.61
2024-03-07T18:00:51.943Z,60.83
2024-03-07T18:03:23.352Z,60.89
2024-03-07T18:05:54.628Z,61.07
2024-03-07T18:08:35.935Z,61.11
2024-03-07T18:11:14.780Z,61.17
2024-03-07T18:13:47.749Z,61.23
2024-03-07T18:16:18.716Z,61.38
2024-03-07T18:18:54.285Z,61.55
2024-03-07T18:21:24.728Z,61.58
2024-03-07T18:23:57.537Z,61.77
2024-03-07T18:26:28.068Z,61.69
2024-03-07T18:28:58.791Z,61.71
2024-03-07T18:31:31.297Z,61.88
2024-03-07T18:34:02.960Z,62.06
2024-03-07T18:36:37.252Z,62.02
2024-03-07T18:39:24.055Z,62.08
2024-03-07T18:41:58.178Z,62.02
2024-03-07T18:44:31.631Z,62.09
2024-03-07T18:47:06.946Z,62.09
2024-03-07T18:49:39.694Z,62.24
2024-03-07T18:52:12.261Z,62.41
2024-03-07T18:54:43.104Z,62.70
2024-03-07T18:57:13.569Z,62.57
2024-03-07T18:59:46.506Z,62.67
2024-03-07T19:02:16.999Z,63.00
2024-03-07T19:04:47.309Z,63.04
2024-03-07T19:07:17.705Z,63.23
2024-03-07T19:09:48.100Z,63.35
2024-03-07T19:12:18.555Z,63.09
2024-03-07T19:15:00.869Z,63.27
2024-03-07T19:17:31.823Z,64.60
2024-03-07T19:20:12.333Z,64.62
2024-03-07T19:22:42.619Z,64.06
2024-03-07T19:25:18.529Z,64.02
2024-03-07T19:27:50.427Z,64.17
2024-03-07T19:30:24.594Z,64.52
2024-03-07T19:32:56.464Z,64.45
2024-03-07T19:35:27.000Z,64.41
2024-03-07T19:37:57.517Z,64.45
2024-03-07T19:40:27.936Z,64.53
2024-03-07T19:42:58.344Z,64.52
2024-03-07T19:45:28.740Z,64.78
2024-03-07T19:48:00.871Z,64.94
2024-03-07T19:50:32.756Z,65.00
2024-03-07T19:53:03.191Z,65.40
2024-03-07T19:55:33.481Z,65.54
2024-03-07T19:58:03.985Z,65.75
2024-03-07T20:00:34.324Z,66.00
2024-03-07T20:03:08.127Z,66.02
2024-03-07T20:05:38.674Z,66.11
2024-03-07T20:08:15.497Z,66.47
2024-03-07T20:10:49.209Z,66.49
2024-03-07T20:13:20.730Z,66.63
2024-03-07T20:15:51.400Z,66.70
2024-03-07T20:18:25.200Z,66.75
2024-03-07T20:20:56.426Z,66.78
2024-03-07T20:23:28.690Z,66.95
2024-03-07T20:26:00.059Z,66.99
2024-03-07T20:28:30.424Z,67.00
2024-03-07T20:31:01.710Z,66.94
2024-03-07T20:33:32.206Z,66.74
2024-03-07T20:36:03.991Z,66.83
2024-03-07T20:38:36.030Z,67.03
2024-03-07T20:41:07.022Z,67.17
2024-03-07T20:43:38.043Z,66.92
2024-03-07T20:46:08.591Z,66.97
2024-03-07T20:48:39.103Z,66.88
2024-03-07T20:51:11.665Z,66.94
2024-03-07T20:53:48.020Z,66.77
2024-03-07T20:56:18.630Z,66.67
2024-03-07T20:58:49.256Z,66.86
2024-03-07T21:01:21.492Z,66.76
2024-03-07T21:03:55.509Z,67.00
2024-03-07T21:06:28.507Z,66.89
2024-03-07T21:08:58.945Z,67.32
2024-03-07T21:11:30.702Z,67.16
2024-03-07T21:14:01.375Z,66.85
2024-03-07T21:16:31.735Z,67.45
2024-03-07T21:19:02.451Z,67.31
2024-03-07T21:21:34.421Z,67.52
2024-03-07T21:24:05.899Z,67.79
2024-03-07T21:26:36.361Z,67.47
2024-03-07T21:29:06.694Z,67.73
2024-03-07T21:31:36.987Z,67.51
2024-03-07T21:34:08.054Z,67.71
2024-03-07T21:36:40.768Z,67.87
2024-03-07T21:39:11.372Z,68.44
2024-03-07T21:41:44.308Z,68.29
2024-03-07T21:44:15.136Z,68.13
2024-03-07T21:46:45.740Z,67.93
2024-03-07T21:49:16.256Z,68.27
2024-03-07T21:51:51.555Z,67.89
2024-03-07T21:54:23.505Z,68.17
2024-03-07T21:56:53.976Z,67.93
2024-03-07T21:59:24.501Z,67.95
2024-03-07T22:01:55.072Z,67.77
2024-03-07T22:04:25.667Z,67.93
2024-03-07T22:06:56.088Z,68.07
2024-03-07T22:09:27.640Z,68.23
2024-03-07T22:11:59.107Z,68.04
2024-03-07T22:14:30.746Z,67.84
2024-03-07T22:17:05.907Z,68.01
2024-03-07T22:19:38.807Z,68.00
2024-03-07T22:22:09.139Z,68.13
2024-03-07T22:24:39.771Z,68.20
2024-03-07T22:27:11.234Z,68.17
2024-03-07T22:29:42.148Z,68.33
2024-03-07T22:32:12.765Z,68.50
2024-03-07T22:34:43.784Z,68.66
2024-03-07T22:37:14.915Z,68.58
2024-03-07T22:39:48.788Z,68.61
2024-03-07T22:42:19.183Z,68.56
2024-03-07T22:44:49.541Z,68.97
2024-03-07T22:47:22.739Z,68.95
2024-03-07T22:49:56.246Z,68.87
2024-03-07T22:52:30.322Z,69.08
2024-03-07T22:55:00.746Z,69.22
2024-03-07T22:57:31.167Z,69.16
2024-03-07T23:00:01.735Z,69.12
2024-03-07T23:02:32.654Z,69.21
2024-03-07T23:05:05.419Z,69.24
2024-03-07T23:07:35.763Z,69.21
2024-03-07T23:10:07.678Z,69.54
2024-03-07T23:12:39.091Z,69.28
2024-03-07T23:15:11.594Z,69.48
2024-03-07T23:17:45.467Z,69.34
2024-03-07T23:20:20.988Z,69.38
2024-03-07T23:22:53.173Z,69.34
2024-03-07T23:25:24.643Z,69.50
2024-03-07T23:27:56.519Z,69.66
2024-03-07T23:30:28.460Z,69.82
2024-03-07T23:33:00.173Z,70.01
2024-03-07T23:35:30.786Z,70.07
2024-03-07T23:38:01.492Z,70.29
2024-03-07T23:40:31.873Z,70.31
2024-03-07T23:43:02.376Z,70.42
2024-03-07T23:45:32.855Z,70.61
2024-03-07T23:48:04.934Z,70.81
2024-03-07T23:50:35.548Z,70.65
2024-03-07T23:53:07.855Z,70.85
2024-03-07T23:55:38.561Z,71.16
2024-03-07T23:58:08.927Z,71.41
